Portada
METAR-TAF:

METAR-TAF

Aeroports :

Bhubaneswar, Índia

latitud: 20-14-40N, longitud: 85-49-04E, altitud: 45 m

Observació

L'informe es va fer fa 35 minuts, a les 18:00 UTC
Vent calma
Temperatura 18°C
Humitat 88%
Pressió 1013 hPa
Visibilitat: 3000 m
boirina

METAR: VEBS 261800Z 00000KT 3000 BR NSC 18/16 Q1013 NOSIG.

Hora: 00:05 (18:35 UTC)

Pronòstic

L'informe es va fer fa 1 hora i 35 minuts, a les 17:00 UTC
Pronòstic vàlid del 26 a les 18 UTC al 27 a les 03 UTC
Vent kt del Nord
Visibilitat: 3000 m
boirina
Evolucionant progressivament
l' 26 a les 20 UTC al 26 a les 22 UTC
Visibilitat: 2000 m
boirina
Evolucionant progressivament
l' 27 a les 00 UTC al 27 a les 02 UTC
Visibilitat: 1500 m
boirina

TAF: VEBS 261700Z 2618/2703 00000KT 3000 BR NSC BECMG 2620/2622 2000 BR BECMG 2700/2702 1500 BR

Observacions i pronòstics meteorològics de més de 4000 aeroports (METAR i TAF).

Les estacions disponibles són els punts grocs i vermells al mapa.

Posi el ratolí al punt desitjat per veure el nom de l'estació.

Feu clic per veure les observacions i els pronòstics meteorològics.

Per canviar el mapa: feu clic els botons verds amb una creu de color negre per apropar; al botó verd amb un guió per allunyar la imatge; o en les fletxes verdes per a mapes adjacents.


METAR-TAF: